Time;durP1;ratioP1;P1;durP2;ratioP2;P2;SDS_P1;SDS_P2;PMS_P1;PMS_P2;Temp;Humidity;BMP_temperature;BMP_pressure;BME280_temperature;BME280_humidity;BME280_pressure;Samples;Min_cycle;Max_cycle;Signal;HPM_P1;HPM_P2
2023/10/29 00:00:04;;;;;;;8.30;4.35;;;11.80;99.90;;;;;;5036574;28;20183;-70
2023/10/29 00:02:50;;;;;;;11.23;5.13;;;11.80;99.90;;;;;;5041771;28;20417;-70
2023/10/29 00:05:36;;;;;;;7.20;4.45;;;11.80;99.90;;;;;;5035313;28;20545;-70
2023/10/29 00:08:22;;;;;;;6.90;4.28;;;11.80;99.90;;;;;;5036760;28;20056;-70
2023/10/29 00:11:11;;;;;;;7.03;4.47;;;11.80;99.90;;;;;;5035993;28;20038;-70
2023/10/29 00:13:59;;;;;;;8.07;3.95;;;11.70;99.90;;;;;;5054900;28;20131;-70
2023/10/29 00:16:45;;;;;;;9.70;4.63;;;11.70;99.90;;;;;;5055378;28;20506;-70
2023/10/29 00:19:32;;;;;;;7.07;4.63;;;11.70;99.90;;;;;;5055284;28;20481;-70
2023/10/29 00:22:18;;;;;;;6.78;3.60;;;11.70;99.90;;;;;;5054956;28;20098;-69
2023/10/29 00:25:04;;;;;;;5.63;4.13;;;11.80;99.90;;;;;;5057096;28;20181;-69
2023/10/29 00:27:51;;;;;;;11.55;3.85;;;11.70;99.90;;;;;;5052581;28;20041;-69
2023/10/29 00:30:37;;;;;;;7.40;4.28;;;11.80;99.90;;;;;;5040484;28;20094;-69
2023/10/29 00:33:24;;;;;;;7.07;3.20;;;11.70;99.90;;;;;;5043597;28;20493;-68
2023/10/29 00:36:10;;;;;;;4.47;3.17;;;11.70;99.90;;;;;;5051388;28;20048;-70
2023/10/29 00:38:56;;;;;;;5.72;3.38;;;11.70;99.90;;;;;;5051329;28;20257;-69
2023/10/29 00:41:42;;;;;;;6.75;3.67;;;11.70;99.90;;;;;;5052427;28;20041;-69
2023/10/29 00:44:28;;;;;;;4.28;3.00;;;11.70;99.90;;;;;;5051240;28;20057;-69
2023/10/29 00:47:14;;;;;;;6.85;2.90;;;11.70;99.90;;;;;;5049806;28;20045;-70
2023/10/29 00:50:00;;;;;;;6.78;3.50;;;11.70;99.90;;;;;;5049265;28;20071;-70
2023/10/29 00:52:47;;;;;;;7.80;3.60;;;11.70;99.90;;;;;;5051930;28;20056;-70
2023/10/29 00:55:34;;;;;;;4.25;2.97;;;11.70;99.90;;;;;;5067571;28;20040;-79
2023/10/29 00:58:23;;;;;;;4.97;3.63;;;11.70;99.90;;;;;;5081404;28;20049;-78
2023/10/29 01:01:08;;;;;;;4.70;2.97;;;11.70;99.90;;;;;;5050739;28;20041;-77
2023/10/29 01:03:54;;;;;;;5.60;3.15;;;11.70;99.90;;;;;;5048980;28;20045;-78
2023/10/29 01:06:42;;;;;;;5.78;3.03;;;11.60;99.90;;;;;;5041950;28;20049;-78
2023/10/29 01:09:29;;;;;;;4.25;2.90;;;11.60;99.90;;;;;;5054626;28;20044;-78
2023/10/29 01:12:19;;;;;;;5.40;2.95;;;11.60;99.90;;;;;;5052694;28;20520;-70
2023/10/29 01:15:06;;;;;;;8.88;3.58;;;11.70;99.90;;;;;;5035717;28;20047;-70
2023/10/29 01:17:51;;;;;;;6.63;3.65;;;11.70;99.90;;;;;;5031244;28;20096;-70
2023/10/29 01:20:38;;;;;;;4.45;3.08;;;11.60;99.90;;;;;;5049160;28;20067;-70
2023/10/29 01:23:25;;;;;;;4.03;3.08;;;11.70;99.90;;;;;;5052735;28;20067;-81
2023/10/29 01:26:11;;;;;;;6.40;3.13;;;11.60;99.90;;;;;;5055040;28;20046;-82
2023/10/29 01:28:58;;;;;;;6.65;3.10;;;11.70;99.90;;;;;;5049699;28;20076;-82
2023/10/29 01:31:48;;;;;;;6.63;3.47;;;11.60;99.90;;;;;;5041828;28;20517;-81
2023/10/29 01:34:34;;;;;;;6.28;3.10;;;11.60;99.90;;;;;;5060803;28;20040;-81
2023/10/29 01:37:20;;;;;;;6.40;3.40;;;11.60;99.90;;;;;;5053637;28;20053;-81
2023/10/29 01:40:06;;;;;;;4.88;2.80;;;11.60;99.90;;;;;;5046951;28;20038;-82
2023/10/29 01:42:52;;;;;;;5.72;3.33;;;11.60;99.90;;;;;;5046805;28;20063;-83
2023/10/29 01:45:38;;;;;;;5.57;3.13;;;11.60;99.90;;;;;;5048708;28;20159;-81
2023/10/29 01:48:24;;;;;;;6.15;3.22;;;11.60;99.90;;;;;;5058143;28;20033;-82
2023/10/29 01:51:10;;;;;;;4.45;2.95;;;11.60;99.90;;;;;;5054367;28;20048;-71
2023/10/29 01:53:57;;;;;;;4.38;3.03;;;11.60;99.90;;;;;;5051307;28;20040;-70
2023/10/29 01:56:42;;;;;;;4.95;2.88;;;11.60;99.90;;;;;;5050990;28;20460;-70
2023/10/29 01:59:32;;;;;;;4.53;2.80;;;11.60;99.90;;;;;;5049186;28;20045;-70
2023/10/29 02:02:18;;;;;;;6.10;2.92;;;11.60;99.90;;;;;;5058590;28;20124;-70
2023/10/29 02:05:04;;;;;;;3.92;2.55;;;11.60;99.90;;;;;;5071291;28;20395;-69
2023/10/29 02:07:50;;;;;;;5.57;2.88;;;11.60;99.90;;;;;;5088488;28;20038;-81
2023/10/29 02:10:36;;;;;;;4.85;2.65;;;11.70;99.90;;;;;;5095234;28;20047;-80
2023/10/29 02:13:22;;;;;;;5.20;3.03;;;11.70;99.90;;;;;;5095574;28;20058;-78
2023/10/29 02:16:09;;;;;;;5.00;2.70;;;11.70;99.90;;;;;;5077917;28;20052;-80
2023/10/29 02:18:55;;;;;;;4.40;2.42;;;11.70;99.90;;;;;;5078234;28;20036;-79
2023/10/29 02:21:40;;;;;;;4.43;3.15;;;11.70;99.90;;;;;;5067095;28;20051;-80
2023/10/29 02:24:26;;;;;;;5.18;2.50;;;11.70;99.90;;;;;;5064780;28;20057;-80
2023/10/29 02:27:12;;;;;;;5.78;2.83;;;11.70;99.90;;;;;;5048546;28;20040;-80
2023/10/29 02:30:19;;;;;;;5.57;2.80;;;11.70;99.90;;;;;;5006903;28;20037;-80
2023/10/29 02:33:04;;;;;;;4.60;2.70;;;11.80;99.90;;;;;;5025526;28;20046;-80
2023/10/29 02:35:50;;;;;;;4.45;2.45;;;11.80;99.90;;;;;;5021083;28;20057;-78
2023/10/29 02:38:40;;;;;;;4.57;2.65;;;11.80;99.90;;;;;;5021321;28;20056;-79
2023/10/29 02:41:26;;;;;;;3.67;2.63;;;11.80;99.90;;;;;;5021428;28;20046;-79
2023/10/29 02:44:12;;;;;;;6.78;2.95;;;11.80;99.90;;;;;;5021810;28;20064;-80
2023/10/29 02:46:58;;;;;;;4.15;2.78;;;11.80;99.90;;;;;;5018101;28;20041;-77
2023/10/29 02:49:44;;;;;;;5.15;2.95;;;11.80;99.90;;;;;;5001797;28;20053;-78
2023/10/29 02:52:31;;;;;;;5.15;2.90;;;11.90;99.90;;;;;;5015455;28;20045;-80
2023/10/29 02:55:17;;;;;;;4.35;2.58;;;11.90;99.90;;;;;;5015986;28;20563;-79
2023/10/29 02:58:02;;;;;;;4.63;2.58;;;11.90;99.90;;;;;;5013476;28;20624;-80
2023/10/29 03:00:48;;;;;;;6.20;3.33;;;11.90;99.90;;;;;;5012876;28;20080;-79
2023/10/29 03:03:36;;;;;;;4.40;3.25;;;11.90;99.90;;;;;;5014192;28;20584;-78
2023/10/29 03:06:22;;;;;;;4.43;2.67;;;11.90;99.90;;;;;;5018992;28;20040;-69
2023/10/29 03:09:08;;;;;;;5.57;2.95;;;11.90;99.90;;;;;;5068789;28;20041;-69
2023/10/29 03:11:54;;;;;;;5.32;3.05;;;11.90;99.90;;;;;;5061854;28;20041;-68
2023/10/29 03:14:41;;;;;;;7.82;3.65;;;11.90;99.90;;;;;;5079353;28;20098;-68
2023/10/29 03:17:27;;;;;;;5.53;3.45;;;11.90;99.90;;;;;;5038449;28;20175;-69
2023/10/29 03:20:16;;;;;;;4.95;2.72;;;12.00;99.90;;;;;;5068729;28;20036;-68
2023/10/29 03:23:02;;;;;;;4.85;3.03;;;12.00;99.90;;;;;;5065227;28;20567;-68
2023/10/29 03:25:48;;;;;;;4.43;2.80;;;12.00;99.90;;;;;;5060959;28;20037;-68
2023/10/29 03:28:35;;;;;;;6.13;3.15;;;12.00;99.90;;;;;;5047296;28;20047;-68
2023/10/29 03:31:23;;;;;;;8.90;3.30;;;12.00;99.90;;;;;;5064667;28;20080;-68
2023/10/29 03:34:11;;;;;;;5.88;3.25;;;12.00;99.90;;;;;;5052589;28;20040;-80
2023/10/29 03:36:57;;;;;;;8.60;3.28;;;12.00;99.90;;;;;;5058963;28;20208;-80
2023/10/29 03:39:43;;;;;;;4.22;2.65;;;12.00;99.90;;;;;;5071697;28;20032;-79
2023/10/29 03:42:29;;;;;;;6.65;2.70;;;12.00;99.90;;;;;;5069029;28;20075;-80
2023/10/29 03:45:14;;;;;;;5.57;2.90;;;12.00;99.90;;;;;;5051975;28;20139;-81
2023/10/29 03:48:01;;;;;;;5.30;2.80;;;12.00;99.90;;;;;;5063253;28;20425;-80
2023/10/29 03:50:47;;;;;;;5.95;3.00;;;12.00;99.90;;;;;;5069985;28;20041;-80
2023/10/29 03:53:33;;;;;;;6.03;2.60;;;12.10;99.90;;;;;;5064093;28;20107;-80
2023/10/29 03:56:19;;;;;;;3.50;2.40;;;12.00;99.90;;;;;;5054412;28;20052;-80
2023/10/29 03:59:06;;;;;;;6.25;2.80;;;12.10;99.90;;;;;;5069991;28;20048;-80
2023/10/29 04:01:52;;;;;;;10.07;3.58;;;12.10;99.90;;;;;;5051837;28;20041;-80
2023/10/29 04:04:38;;;;;;;8.25;3.08;;;12.10;99.90;;;;;;5051136;28;20041;-78
2023/10/29 04:07:24;;;;;;;6.07;2.65;;;12.10;99.90;;;;;;5060623;28;20037;-79
2023/10/29 04:10:11;;;;;;;5.63;2.60;;;12.10;99.90;;;;;;5075122;28;20044;-78
2023/10/29 04:12:57;;;;;;;5.53;2.90;;;12.10;99.90;;;;;;5076851;28;20121;-80
2023/10/29 04:15:43;;;;;;;6.35;2.72;;;12.10;99.90;;;;;;5075561;28;20055;-78
2023/10/29 04:18:31;;;;;;;4.43;2.28;;;12.10;99.90;;;;;;5057249;28;20073;-78
2023/10/29 04:21:17;;;;;;;8.75;3.10;;;12.10;99.90;;;;;;5040105;28;20045;-79
2023/10/29 04:24:03;;;;;;;5.00;2.85;;;12.10;99.90;;;;;;5055654;28;20791;-78
2023/10/29 04:26:49;;;;;;;6.03;2.78;;;12.10;99.90;;;;;;5055068;28;20045;-78
2023/10/29 04:29:35;;;;;;;5.20;2.67;;;12.10;99.90;;;;;;5073390;28;20533;-69
2023/10/29 04:32:21;;;;;;;5.22;2.97;;;12.10;99.90;;;;;;5067476;28;20117;-68
2023/10/29 04:35:08;;;;;;;6.03;3.25;;;12.20;99.90;;;;;;5063024;28;20057;-68
2023/10/29 04:37:53;;;;;;;5.57;2.53;;;12.10;99.90;;;;;;5068443;28;20053;-67
2023/10/29 04:40:39;;;;;;;2.83;2.10;;;12.10;99.90;;;;;;5063869;28;20119;-68
2023/10/29 04:43:25;;;;;;;5.28;2.50;;;12.10;99.90;;;;;;5071448;28;20498;-68
2023/10/29 04:46:12;;;;;;;3.67;2.30;;;12.20;99.90;;;;;;5055647;28;20033;-68
2023/10/29 04:48:58;;;;;;;5.50;2.40;;;12.20;99.90;;;;;;5066824;28;20492;-68
2023/10/29 04:51:44;;;;;;;4.57;2.20;;;12.20;99.90;;;;;;5053130;28;20040;-69
2023/10/29 04:54:30;;;;;;;4.60;2.67;;;12.20;99.90;;;;;;5064499;28;20040;-69
2023/10/29 04:57:20;;;;;;;3.63;2.17;;;12.20;99.90;;;;;;5070180;28;20059;-69
2023/10/29 05:00:06;;;;;;;5.07;2.30;;;12.20;99.90;;;;;;5066965;28;20509;-79
2023/10/29 05:02:52;;;;;;;5.00;2.10;;;12.20;99.90;;;;;;5054284;28;20420;-78
2023/10/29 05:05:38;;;;;;;7.53;2.60;;;12.20;99.90;;;;;;5053834;28;20037;-78
2023/10/29 05:08:24;;;;;;;5.65;2.58;;;12.20;99.90;;;;;;5068246;28;20489;-77
2023/10/29 05:11:10;;;;;;;3.67;2.17;;;12.20;99.90;;;;;;5070520;28;20041;-78
2023/10/29 05:13:56;;;;;;;3.10;2.22;;;12.20;99.90;;;;;;5066241;28;20051;-77
2023/10/29 05:16:42;;;;;;;5.97;2.80;;;12.20;99.90;;;;;;5072067;28;20045;-76
2023/10/29 05:19:28;;;;;;;3.97;2.35;;;12.20;99.90;;;;;;5075220;28;20045;-77
2023/10/29 05:22:14;;;;;;;6.13;2.65;;;12.20;99.90;;;;;;5065411;28;20036;-77
2023/10/29 05:25:02;;;;;;;5.43;2.42;;;12.20;99.90;;;;;;5072790;28;20045;-76
2023/10/29 05:27:55;;;;;;;5.60;2.40;;;12.20;99.90;;;;;;5080713;28;20149;-77
2023/10/29 05:30:41;;;;;;;3.13;2.10;;;12.20;99.90;;;;;;5076507;28;20045;-76
2023/10/29 05:33:27;;;;;;;5.20;2.83;;;12.20;99.90;;;;;;5056894;28;20033;-77
2023/10/29 05:36:13;;;;;;;4.38;2.38;;;12.20;99.90;;;;;;5060400;28;20547;-78
2023/10/29 05:38:59;;;;;;;4.45;2.30;;;12.30;99.90;;;;;;5072358;28;20679;-77
2023/10/29 05:41:44;;;;;;;7.38;2.33;;;12.30;99.90;;;;;;5072170;28;20044;-78
2023/10/29 05:44:31;;;;;;;3.53;2.28;;;12.20;99.90;;;;;;5052489;28;20049;-72
2023/10/29 05:47:17;;;;;;;5.55;2.03;;;12.30;99.90;;;;;;5051236;28;20502;-76
2023/10/29 05:50:04;;;;;;;4.55;2.20;;;12.30;99.90;;;;;;5050580;28;20506;-71
2023/10/29 05:52:50;;;;;;;6.28;2.25;;;12.30;99.90;;;;;;5072112;28;20067;-74
2023/10/29 05:55:36;;;;;;;5.43;2.25;;;12.30;99.90;;;;;;5052751;28;20498;-74
2023/10/29 05:58:23;;;;;;;5.18;2.05;;;12.40;99.90;;;;;;5051885;28;20132;-77
2023/10/29 06:01:10;;;;;;;4.03;2.10;;;12.40;99.90;;;;;;5052100;28;20067;-74
2023/10/29 06:03:56;;;;;;;5.55;2.40;;;12.40;99.90;;;;;;5063686;28;20102;-74
2023/10/29 06:06:42;;;;;;;4.32;2.30;;;12.40;99.90;;;;;;5051833;28;20056;-73
2023/10/29 06:09:28;;;;;;;4.70;2.55;;;12.40;99.90;;;;;;5063890;28;20041;-71
2023/10/29 06:12:14;;;;;;;3.05;1.92;;;12.50;99.90;;;;;;5050373;28;20557;-78
2023/10/29 06:15:00;;;;;;;5.00;2.63;;;12.50;99.90;;;;;;5056557;28;20032;-77
2023/10/29 06:17:46;;;;;;;4.95;2.67;;;12.50;99.90;;;;;;5050642;28;20136;-77
2023/10/29 06:20:33;;;;;;;4.13;1.80;;;12.50;99.90;;;;;;5054933;28;20079;-75
2023/10/29 06:23:20;;;;;;;3.95;2.33;;;12.50;99.90;;;;;;5055404;28;20044;-76
2023/10/29 06:26:09;;;;;;;4.22;2.20;;;12.50;99.90;;;;;;5066488;28;20051;-75
2023/10/29 06:28:55;;;;;;;3.05;1.88;;;12.50;99.90;;;;;;5057250;28;20121;-76
2023/10/29 06:31:41;;;;;;;4.13;2.38;;;12.50;99.90;;;;;;5060828;28;20101;-76
2023/10/29 06:34:26;;;;;;;3.10;1.88;;;12.60;99.90;;;;;;5070529;28;20044;-76
2023/10/29 06:37:12;;;;;;;3.72;2.40;;;12.60;99.90;;;;;;5052162;28;20099;-70
2023/10/29 06:39:58;;;;;;;3.72;2.10;;;12.60;99.90;;;;;;5054118;28;20112;-71
2023/10/29 06:42:45;;;;;;;6.25;2.30;;;12.60;99.90;;;;;;5052194;28;20044;-70
2023/10/29 06:45:31;;;;;;;4.00;1.88;;;12.60;99.90;;;;;;5049217;28;20041;-70
2023/10/29 06:48:17;;;;;;;6.32;2.53;;;12.60;99.90;;;;;;5050884;28;20047;-70
2023/10/29 06:51:03;;;;;;;3.78;2.03;;;12.70;99.90;;;;;;5064902;28;20136;-70
2023/10/29 06:53:49;;;;;;;4.03;2.10;;;12.70;99.90;;;;;;5068093;28;20520;-70
2023/10/29 06:56:35;;;;;;;4.55;2.05;;;12.70;99.90;;;;;;5067484;28;20139;-71
2023/10/29 06:59:21;;;;;;;8.45;2.85;;;12.70;99.90;;;;;;5055816;28;20481;-70
2023/10/29 07:02:07;;;;;;;4.32;2.17;;;12.70;99.90;;;;;;5049139;28;20083;-69
2023/10/29 07:04:53;;;;;;;4.38;2.15;;;12.80;99.90;;;;;;5049439;28;20052;-74
2023/10/29 07:07:39;;;;;;;4.10;1.80;;;12.80;99.90;;;;;;5050703;28;20108;-70
2023/10/29 07:10:25;;;;;;;5.63;2.40;;;12.80;99.90;;;;;;5068860;28;20075;-71
2023/10/29 07:13:11;;;;;;;3.78;1.70;;;12.80;99.90;;;;;;5060729;28;20467;-71
2023/10/29 07:15:59;;;;;;;4.45;2.60;;;12.80;99.90;;;;;;5064467;28;20044;-72
2023/10/29 07:18:45;;;;;;;6.65;2.67;;;12.80;99.90;;;;;;5057997;28;20485;-70
2023/10/29 07:21:31;;;;;;;3.55;2.35;;;12.90;99.90;;;;;;5035250;28;20102;-72
2023/10/29 07:24:17;;;;;;;3.78;1.90;;;12.90;99.90;;;;;;5064073;28;20041;-71
2023/10/29 07:27:03;;;;;;;4.25;2.50;;;12.90;99.90;;;;;;5058260;28;20041;-71
2023/10/29 07:29:49;;;;;;;4.75;2.00;;;12.90;99.90;;;;;;5058620;28;20045;-71
2023/10/29 07:32:35;;;;;;;4.60;2.65;;;12.90;99.90;;;;;;5068145;28;20037;-71
2023/10/29 07:35:22;;;;;;;3.63;2.08;;;12.90;99.90;;;;;;5056541;28;20353;-69
2023/10/29 07:38:08;;;;;;;4.35;2.33;;;12.90;99.90;;;;;;5062995;28;20060;-70
2023/10/29 07:40:54;;;;;;;4.90;2.80;;;13.00;99.90;;;;;;5051053;28;20040;-73
2023/10/29 07:43:40;;;;;;;4.80;2.22;;;13.00;99.90;;;;;;5052325;28;20084;-72
2023/10/29 07:46:25;;;;;;;4.55;2.30;;;13.00;99.90;;;;;;5038402;28;20044;-71
2023/10/29 07:49:11;;;;;;;4.47;2.28;;;13.00;99.90;;;;;;5056209;28;20168;-70
2023/10/29 07:51:57;;;;;;;3.85;2.10;;;13.00;99.90;;;;;;5060753;28;20056;-70
2023/10/29 07:54:43;;;;;;;5.05;2.00;;;13.00;99.90;;;;;;5072556;28;20101;-73
2023/10/29 07:57:29;;;;;;;4.38;1.90;;;13.00;99.90;;;;;;5060227;28;20489;-73
2023/10/29 08:00:16;;;;;;;4.63;2.35;;;13.00;99.90;;;;;;5072057;28;20040;-67
2023/10/29 08:03:02;;;;;;;5.82;2.28;;;13.00;99.90;;;;;;5056747;28;20047;-70
2023/10/29 08:05:52;;;;;;;4.80;2.25;;;13.00;99.90;;;;;;5053093;28;20065;-71
2023/10/29 08:08:38;;;;;;;4.78;2.55;;;12.90;99.90;;;;;;5051501;28;20387;-70
2023/10/29 08:11:24;;;;;;;3.65;2.20;;;13.00;99.90;;;;;;5061180;28;20048;-71
2023/10/29 08:14:10;;;;;;;29.50;3.70;;;13.00;99.90;;;;;;5056671;28;20041;-70
2023/10/29 08:16:56;;;;;;;5.47;2.72;;;12.90;99.90;;;;;;5052761;28;20053;-70
2023/10/29 08:19:43;;;;;;;6.72;2.33;;;13.00;99.90;;;;;;5052238;28;20080;-69
2023/10/29 08:22:29;;;;;;;6.00;2.10;;;13.00;99.90;;;;;;5053248;28;20556;-70
2023/10/29 08:25:14;;;;;;;6.15;2.50;;;12.90;99.90;;;;;;5054795;28;20543;-69
2023/10/29 08:28:00;;;;;;;7.90;2.25;;;13.00;99.90;;;;;;5054018;28;20041;-69
2023/10/29 08:30:49;;;;;;;5.80;2.47;;;13.00;99.90;;;;;;5074682;28;20045;-70
2023/10/29 08:33:35;;;;;;;4.00;2.10;;;13.00;99.90;;;;;;5065119;28;20041;-72
2023/10/29 08:36:21;;;;;;;6.75;2.05;;;13.10;99.90;;;;;;5075005;28;20045;-70
2023/10/29 08:39:08;;;;;;;3.38;2.20;;;13.10;99.90;;;;;;5062880;28;20071;-72
2023/10/29 08:41:54;;;;;;;4.90;2.20;;;13.10;99.90;;;;;;5059993;28;20045;-70
2023/10/29 08:44:40;;;;;;;3.88;1.90;;;13.10;99.90;;;;;;5071842;28;20083;-71
2023/10/29 08:47:26;;;;;;;4.00;2.30;;;13.20;99.90;;;;;;5063191;28;20057;-70
2023/10/29 08:50:12;;;;;;;3.72;2.60;;;13.20;99.90;;;;;;5061320;28;20041;-71
2023/10/29 08:52:58;;;;;;;5.43;2.50;;;13.20;99.90;;;;;;5050668;28;20049;-70
2023/10/29 08:55:45;;;;;;;2.40;1.92;;;13.30;99.90;;;;;;5070709;28;20040;-71
2023/10/29 08:58:31;;;;;;;3.65;2.42;;;13.30;99.90;;;;;;5059143;28;20041;-72
2023/10/29 09:01:17;;;;;;;4.07;2.33;;;13.30;99.90;;;;;;5059255;28;20064;-67
2023/10/29 09:04:04;;;;;;;4.35;2.30;;;13.40;99.90;;;;;;5059357;28;20041;-70
2023/10/29 09:06:50;;;;;;;4.13;2.25;;;13.40;99.90;;;;;;5069594;28;20055;-71
2023/10/29 09:09:37;;;;;;;5.18;2.17;;;13.50;99.90;;;;;;5053655;28;20067;-71
2023/10/29 09:12:23;;;;;;;3.78;2.03;;;13.50;99.90;;;;;;5053367;28;20133;-70
2023/10/29 09:15:10;;;;;;;3.20;2.20;;;13.60;99.90;;;;;;5059648;28;20355;-70
2023/10/29 09:17:56;;;;;;;4.10;2.67;;;13.60;99.90;;;;;;5066000;28;20056;-72
2023/10/29 09:20:46;;;;;;;3.33;2.03;;;13.70;99.90;;;;;;5063888;28;20044;-71
2023/10/29 09:23:32;;;;;;;3.50;1.83;;;13.80;99.90;;;;;;5069501;28;20482;-71
2023/10/29 09:26:18;;;;;;;7.63;2.47;;;13.80;99.90;;;;;;5073637;28;20420;-72
2023/10/29 09:29:04;;;;;;;5.50;2.33;;;13.90;99.90;;;;;;5091182;28;20405;-71
2023/10/29 09:31:53;;;;;;;10.13;3.08;;;13.90;99.90;;;;;;5071727;28;20036;-71
2023/10/29 09:34:40;;;;;;;3.97;1.90;;;13.90;99.90;;;;;;5066457;28;20059;-72
2023/10/29 09:37:26;;;;;;;4.25;2.65;;;14.00;99.90;;;;;;5064456;28;20052;-70
2023/10/29 09:40:14;;;;;;;4.75;2.03;;;14.00;99.90;;;;;;5065958;28;20036;-71
2023/10/29 09:43:05;;;;;;;6.43;2.63;;;14.00;99.90;;;;;;5059642;28;20175;-71
2023/10/29 09:45:52;;;;;;;3.83;2.00;;;14.10;99.90;;;;;;5055818;28;20041;-71
2023/10/29 09:48:39;;;;;;;3.47;2.00;;;14.10;99.90;;;;;;5070387;28;20037;-72
2023/10/29 09:51:25;;;;;;;4.88;2.10;;;14.20;99.90;;;;;;5057208;28;20120;-72
2023/10/29 09:54:12;;;;;;;4.32;2.30;;;14.20;99.90;;;;;;5082146;28;20477;-72
2023/10/29 09:56:58;;;;;;;3.38;2.22;;;14.20;99.90;;;;;;5070047;28;20516;-73
2023/10/29 09:59:44;;;;;;;4.50;2.15;;;14.20;99.90;;;;;;5069248;28;20036;-72
2023/10/29 10:02:30;;;;;;;3.08;2.10;;;14.20;99.90;;;;;;5065373;28;20048;-72
2023/10/29 10:05:20;;;;;;;5.40;2.22;;;14.30;99.90;;;;;;5065122;28;20489;-73
2023/10/29 10:08:06;;;;;;;3.13;1.83;;;14.30;99.90;;;;;;5068843;28;20048;-72
2023/10/29 10:10:52;;;;;;;4.18;2.42;;;14.30;99.90;;;;;;5078465;28;20039;-73
2023/10/29 10:13:41;;;;;;;15.52;2.10;;;14.30;99.90;;;;;;5067557;28;20101;-71
2023/10/29 10:16:29;;;;;;;3.80;2.20;;;14.30;99.90;;;;;;5068761;28;20056;-70
2023/10/29 10:19:15;;;;;;;2.85;1.75;;;14.40;99.90;;;;;;5069665;28;20036;-71
2023/10/29 10:22:01;;;;;;;3.00;2.28;;;14.40;99.90;;;;;;5069120;28;20146;-76
2023/10/29 10:24:48;;;;;;;4.60;2.17;;;14.30;99.90;;;;;;5069839;28;20094;-74
2023/10/29 10:27:57;;;;;;;2.97;2.00;;;14.40;99.90;;;;;;5044632;28;20047;-74
2023/10/29 10:30:43;;;;;;;10.48;2.35;;;14.40;99.90;;;;;;5059515;28;20074;-73
2023/10/29 10:33:29;;;;;;;3.47;2.17;;;14.40;99.90;;;;;;5062901;28;20042;-74
2023/10/29 10:36:29;;;;;;;4.45;2.33;;;14.40;99.90;;;;;;5070222;28;20040;-74
2023/10/29 10:39:25;;;;;;;4.80;2.45;;;14.40;99.90;;;;;;5048587;28;20052;-74
2023/10/29 10:42:11;;;;;;;3.38;2.03;;;14.50;99.90;;;;;;5070459;28;20059;-74
2023/10/29 10:44:59;;;;;;;4.68;2.22;;;14.40;99.90;;;;;;5078611;28;20091;-75
2023/10/29 10:47:45;;;;;;;6.03;2.55;;;14.40;99.90;;;;;;5049754;28;20037;-74
2023/10/29 10:50:32;;;;;;;3.28;2.35;;;14.50;99.90;;;;;;5059573;28;20055;-74
2023/10/29 10:53:19;;;;;;;5.80;2.38;;;14.50;99.90;;;;;;5063645;28;20083;-75
2023/10/29 10:56:08;;;;;;;3.33;2.22;;;14.50;99.90;;;;;;5053914;28;20099;-75
2023/10/29 10:58:56;;;;;;;4.65;2.20;;;14.60;99.90;;;;;;5070798;28;20055;-73
2023/10/29 11:01:42;;;;;;;5.35;2.30;;;14.60;99.90;;;;;;5068349;28;20044;-74
2023/10/29 11:04:30;;;;;;;6.93;2.35;;;14.70;99.90;;;;;;5062623;28;20044;-73
2023/10/29 11:07:16;;;;;;;4.13;2.45;;;14.80;99.90;;;;;;5070064;28;20517;-74
2023/10/29 11:10:03;;;;;;;4.85;2.28;;;14.80;99.90;;;;;;5060556;28;20067;-74
2023/10/29 11:12:49;;;;;;;4.18;1.92;;;14.90;99.90;;;;;;5056709;28;20048;-73
2023/10/29 11:15:46;;;;;;;4.50;2.33;;;15.00;99.90;;;;;;5070296;28;20397;-74
2023/10/29 11:18:32;;;;;;;4.10;1.92;;;15.10;99.90;;;;;;5070060;28;20059;-74
2023/10/29 11:21:34;;;;;;;5.25;1.88;;;15.20;99.90;;;;;;5050347;28;20044;-74
2023/10/29 11:24:22;;;;;;;2.10;1.27;;;15.20;99.90;;;;;;5052907;28;20048;-73
2023/10/29 11:27:33;;;;;;;3.20;1.92;;;15.30;99.90;;;;;;5062123;28;20044;-74
2023/10/29 11:30:21;;;;;;;3.85;1.75;;;15.30;99.90;;;;;;5062807;28;20033;-73
2023/10/29 11:33:09;;;;;;;3.05;1.50;;;15.40;99.90;;;;;;5068588;28;20044;-73
2023/10/29 11:36:34;;;;;;;2.60;1.58;;;15.30;99.90;;;;;;5063063;28;20120;-73
2023/10/29 11:39:29;;;;;;;4.28;1.90;;;15.40;99.90;;;;;;5061885;28;20066;-73
2023/10/29 11:42:25;;;;;;;4.37;1.30;;;15.50;99.90;;;;;;5077579;28;20050;-73
2023/10/29 11:45:31;;;;;;;2.92;1.88;;;15.60;99.90;;;;;;5024202;28;20174;-72
2023/10/29 11:48:17;;;;;;;3.88;1.85;;;15.60;99.90;;;;;;5029690;28;20056;-73
2023/10/29 11:51:03;;;;;;;3.03;1.60;;;15.60;99.90;;;;;;5043775;28;20042;-74
2023/10/29 11:53:49;;;;;;;2.10;1.38;;;15.70;99.90;;;;;;5030276;28;20120;-74
2023/10/29 11:56:36;;;;;;;2.08;1.25;;;15.70;99.90;;;;;;5046907;28;20055;-73
2023/10/29 11:59:23;;;;;;;2.83;1.70;;;15.80;99.90;;;;;;5027293;28;20450;-74
2023/10/29 12:02:09;;;;;;;4.05;1.77;;;15.80;99.90;;;;;;5018433;28;20133;-74
2023/10/29 12:04:56;;;;;;;3.22;1.38;;;15.80;99.90;;;;;;5026360;28;20402;-74
2023/10/29 12:07:42;;;;;;;2.50;1.58;;;15.80;99.90;;;;;;5040312;28;20046;-74
2023/10/29 12:10:28;;;;;;;3.40;1.60;;;15.80;99.90;;;;;;5022856;28;20037;-74
2023/10/29 12:13:18;;;;;;;4.65;1.83;;;15.90;99.90;;;;;;5034385;28;20049;-73
2023/10/29 12:16:07;;;;;;;2.38;1.40;;;15.90;99.90;;;;;;5025502;28;20111;-74
2023/10/29 12:18:53;;;;;;;2.58;1.88;;;16.00;99.90;;;;;;5010658;28;20334;-68
2023/10/29 12:21:51;;;;;;;2.72;1.60;;;16.10;99.90;;;;;;5026902;28;20036;-68
2023/10/29 12:24:37;;;;;;;3.55;2.35;;;16.10;99.90;;;;;;5023246;28;20069;-68
2023/10/29 12:27:23;;;;;;;4.18;2.35;;;16.20;99.90;;;;;;5022251;28;20103;-69
2023/10/29 12:30:29;;;;;;;3.95;2.25;;;16.20;99.90;;;;;;5025201;28;20061;-68
2023/10/29 12:33:23;;;;;;;2.60;1.73;;;16.30;99.90;;;;;;5014242;28;20034;-68
2023/10/29 12:36:14;;;;;;;3.40;1.65;;;16.30;99.90;;;;;;5032854;28;20506;-68
2023/10/29 12:39:00;;;;;;;2.58;1.73;;;16.30;99.90;;;;;;5044984;28;20100;-66
2023/10/29 12:41:53;;;;;;;3.78;2.17;;;16.30;99.90;;;;;;5057828;28;20037;-65
2023/10/29 12:44:38;;;;;;;4.60;2.70;;;16.30;99.90;;;;;;5056721;28;20076;-65
2023/10/29 12:47:24;;;;;;;3.60;1.80;;;16.30;99.90;;;;;;5063601;28;20114;-66
2023/10/29 12:50:12;;;;;;;2.90;1.95;;;16.30;99.90;;;;;;5070398;28;20047;-72
2023/10/29 12:52:57;;;;;;;3.38;1.80;;;16.40;99.90;;;;;;5076578;28;20123;-71
2023/10/29 12:55:44;;;;;;;4.97;2.47;;;16.40;99.90;;;;;;5055668;28;20036;-73
2023/10/29 12:58:30;;;;;;;3.25;2.03;;;16.40;99.90;;;;;;5070650;28;20096;-68
2023/10/29 13:01:17;;;;;;;2.47;1.70;;;16.40;99.90;;;;;;5062510;28;20054;-74
2023/10/29 13:04:03;;;;;;;3.47;1.85;;;16.40;99.90;;;;;;5044221;28;20041;-72
2023/10/29 13:06:53;;;;;;;4.13;2.05;;;16.40;99.90;;;;;;5068401;28;20451;-70
2023/10/29 13:09:40;;;;;;;4.70;2.08;;;16.40;99.90;;;;;;5045327;28;20083;-70
2023/10/29 13:12:27;;;;;;;4.20;2.03;;;16.40;99.90;;;;;;5070741;28;20044;-67
2023/10/29 13:15:13;;;;;;;5.18;2.33;;;16.50;99.90;;;;;;5081376;28;20048;-71
2023/10/29 13:18:00;;;;;;;5.10;2.70;;;16.40;99.90;;;;;;5066859;28;20068;-69
2023/10/29 13:20:45;;;;;;;2.92;1.80;;;16.40;99.90;;;;;;5073356;28;20049;-71
2023/10/29 13:23:31;;;;;;;8.77;2.55;;;16.40;99.90;;;;;;5081154;28;20047;-69
2023/10/29 13:26:17;;;;;;;3.30;2.42;;;16.40;99.90;;;;;;5070615;28;20083;-68
2023/10/29 13:29:04;;;;;;;4.20;2.38;;;16.40;99.90;;;;;;5054512;28;20457;-70
2023/10/29 13:31:49;;;;;;;4.85;2.42;;;16.30;99.90;;;;;;5072871;28;20038;-69
2023/10/29 13:34:36;;;;;;;4.97;2.60;;;16.30;99.90;;;;;;5063148;28;20067;-69
2023/10/29 13:37:22;;;;;;;4.22;2.42;;;16.30;99.90;;;;;;5062214;28;20391;-70
2023/10/29 13:40:09;;;;;;;4.53;2.38;;;16.30;99.90;;;;;;5044350;28;20028;-70
2023/10/29 13:42:55;;;;;;;3.92;2.42;;;16.20;99.90;;;;;;5048860;28;20045;-70
2023/10/29 13:45:41;;;;;;;4.63;2.92;;;16.20;99.90;;;;;;5053549;28;20087;-72
2023/10/29 13:48:28;;;;;;;4.30;2.50;;;16.20;99.90;;;;;;5052012;28;20041;-71
2023/10/29 13:51:14;;;;;;;6.78;3.13;;;16.20;99.90;;;;;;5057357;28;20128;-71
2023/10/29 13:54:00;;;;;;;4.68;2.33;;;16.20;99.90;;;;;;5052161;28;20094;-71
2023/10/29 13:56:46;;;;;;;6.57;2.25;;;16.20;99.90;;;;;;5054360;28;20052;-70
2023/10/29 13:59:32;;;;;;;6.35;2.70;;;16.20;99.90;;;;;;5064675;28;20047;-70
2023/10/29 14:02:18;;;;;;;4.97;2.72;;;16.10;99.90;;;;;;5053911;28;20045;-69
2023/10/29 14:05:06;;;;;;;5.10;3.10;;;16.10;99.90;;;;;;5058046;28;20407;-71
2023/10/29 14:07:54;;;;;;;8.00;2.92;;;16.10;99.90;;;;;;5060728;28;20517;-71
2023/10/29 14:10:40;;;;;;;3.85;2.35;;;16.10;99.90;;;;;;5053565;28;20103;-69
2023/10/29 14:13:26;;;;;;;4.65;2.00;;;16.10;99.90;;;;;;5065187;28;20122;-71
2023/10/29 14:16:11;;;;;;;3.75;1.92;;;16.00;99.90;;;;;;5058513;28;20041;-70
2023/10/29 14:18:57;;;;;;;3.55;1.75;;;16.10;99.90;;;;;;5067901;28;20051;-70
2023/10/29 14:21:44;;;;;;;4.93;2.08;;;16.00;99.90;;;;;;5070477;28;20045;-71
2023/10/29 14:24:30;;;;;;;3.72;2.00;;;16.00;99.90;;;;;;5054474;28;20047;-71
2023/10/29 14:27:16;;;;;;;5.10;2.10;;;16.00;99.90;;;;;;5066127;28;22782;-71